Coastal Nomad — WDC6439 — position and weather

sailwx.info

Track history (hours):
 
Tides and Currents Weather Stations Pressure Air Temp Water Temp Dewpoint Dewpoint Depression Visibility Wind Speed Wind Dir Waves Ship Positions

Coastal Nomad

Owner: Coastal Transportation, Inc., Seattle, WA. More information available from US FCC via Universal Licensing System and Coast Guard Vessel Documentation Center.

Last reported at 2017-Apr-26 18:00 UTC. Time now 2017-Apr-28 20:02 UTC.
Position N 55°48' W 152°36'.

Length 74 m; draft 5 m.

Type: Cargo ship. MMSI: 303683000.

Wind from 240 at 15 knots

Barometer 1001.0 mb
Air temperature 3.9 ° C
Visibility: greater than 5.4 NM

Date/timePositionNaut miles runAvg speedWind from/ knotsBaromVisibWave heightAir tempDewpointWater temp
2017-Apr-26 18:00N 55°48' W 152°36'28311.8 240 / 151001.0 5.4 3.9
2017-Apr-25 18:00N 56°12' W 144°12'26911.7 130 / 20999.0 5.4 4.4
2017-Apr-24 19:00N 55°06' W 136°30'39411.1 180 / 201010.0 5.4 6.7
2017-Apr-23 07:30N 51°02' W 127°55'612.1
2017-Apr-23 07:00N 50°59' W 127°47'611.7
2017-Apr-23 06:30N 50°55' W 127°40'611.1
2017-Apr-23 06:00N 50°52' W 127°33'611.5
2017-Apr-23 05:30N 50°49' W 127°25'611.9
2017-Apr-23 05:00N 50°47' W 127°16'611.9
2017-Apr-23 04:28N 50°45' W 127°07'511.7
2017-Apr-23 04:00N 50°43' W 126°59'811.7
2017-Apr-23 03:19N 50°39' W 126°48'5212.6
2017-Apr-22 23:12N 50°21' W 125°31'313.6
2017-Apr-22 23:00N 50°20' W 125°27'611.6
2017-Apr-22 22:30N 50°15' W 125°23'612.1
2017-Apr-22 22:00N 50°09' W 125°21'5 9.4
2017-Apr-22 21:30N 50°06' W 125°17'5 9.8
2017-Apr-22 21:00N 50°01' W 125°13'4 8.8
2017-Apr-22 20:30N 49°58' W 125°09'612.0
2017-Apr-22 20:01N 49°54' W 125°02'612.1
2017-Apr-22 19:30N 49°49' W 124°55'612.0
2017-Apr-22 19:00N 49°45' W 124°49'612.0
2017-Apr-22 18:31N 49°41' W 124°43'612.2
2017-Apr-22 18:00N 49°37' W 124°35'612.0
2017-Apr-22 17:30N 49°33' W 124°29'612.0
2017-Apr-22 17:00N 49°28' W 124°23'612.3
2017-Apr-22 16:30N 49°25' W 124°15'611.9
2017-Apr-22 16:00N 49°22' W 124°07'611.4
2017-Apr-22 15:30N 49°20' W 123°59'612.0
2017-Apr-22 15:00N 49°17' W 123°51'611.5
2017-Apr-22 14:28N 49°13' W 123°43'1111.4
2017-Apr-22 13:30N 49°08' W 123°28'611.8
2017-Apr-22 13:00N 49°04' W 123°21'611.3
2017-Apr-22 12:31N 49°01' W 123°14'611.2
2017-Apr-22 12:00N 48°57' W 123°08'611.4
2017-Apr-22 11:30N 48°53' W 123°02'612.4
2017-Apr-22 11:00N 48°49' W 122°54'612.3
2017-Apr-22 10:30N 48°46' W 122°47'612.7
2017-Apr-22 10:00N 48°40' W 122°42'713.3
2017-Apr-22 09:30N 48°34' W 122°45'713.6
2017-Apr-22 09:00N 48°27' W 122°44'612.7
2017-Apr-22 08:30N 48°21' W 122°45'612.0
2017-Apr-22 07:59N 48°15' W 122°48'5 9.4
2017-Apr-22 07:29N 48°10' W 122°45'4 8.8
2017-Apr-22 06:59N 48°07' W 122°40'510.0
2017-Apr-22 06:29N 48°03' W 122°38'510.0
2017-Apr-22 06:00N 47°58' W 122°35'510.4
2017-Apr-22 05:30N 47°55' W 122°29'611.6
2017-Apr-22 05:00N 47°49' W 122°27'612.0
2017-Apr-22 04:30N 47°43' W 122°26'4 7.3
2017-Apr-22 04:00N 47°40' W 122°24'1 2.1
2017-Apr-22 03:30N 47°40' W 122°22'0 0.2
2017-Apr-22 02:59N 47°39' W 122°22'0 0.0
2017-Apr-22 02:30N 47°39' W 122°22'0 0.0
2017-Apr-22 02:00N 47°39' W 122°22'0 0.0
2017-Apr-22 01:30N 47°39' W 122°22'0 0.0
2017-Apr-22 01:00N 47°39' W 122°22'0 0.0
2017-Apr-22 00:30N 47°39' W 122°22'0 0.0
2017-Apr-22 00:00N 47°39' W 122°22'0 0.0
2017-Apr-21 23:30N 47°39' W 122°22'0 0.0
2017-Apr-21 23:00N 47°39' W 122°22'0 0.0
2017-Apr-21 22:30N 47°39' W 122°22'0 0.0
2017-Apr-21 22:00N 47°39' W 122°22'0 0.0
2017-Apr-21 21:30N 47°39' W 122°22'0 0.0
2017-Apr-21 21:00N 47°39' W 122°22'0 0.0
2017-Apr-21 20:30N 47°39' W 122°22'0 0.0
2017-Apr-21 20:00N 47°39' W 122°22'0 0.0
2017-Apr-21 19:30N 47°39' W 122°22'0 0.0
2017-Apr-21 19:00N 47°39' W 122°22'0 0.0
2017-Apr-21 18:30N 47°39' W 122°22'0 0.0
2017-Apr-21 18:00N 47°39' W 122°22'0 0.0
2017-Apr-21 17:30N 47°39' W 122°22'0 0.0
2017-Apr-21 17:00N 47°39' W 122°22'0 0.0
2017-Apr-21 16:30N 47°39' W 122°22'0 0.0
2017-Apr-21 16:00N 47°39' W 122°22'0 0.0
2017-Apr-21 15:30N 47°39' W 122°22'0 0.0
2017-Apr-21 15:00N 47°39' W 122°22'0 0.0
2017-Apr-21 14:30N 47°39' W 122°22'0 0.0
2017-Apr-21 13:30N 47°39' W 122°22'0 0.0
2017-Apr-21 13:00N 47°39' W 122°22'0 0.0
2017-Apr-21 12:30N 47°39' W 122°22'0 0.0
2017-Apr-21 12:00N 47°39' W 122°22'0 0.0
2017-Apr-21 11:30N 47°39' W 122°22'0 0.0
2017-Apr-21 11:00N 47°39' W 122°22'0 0.0
2017-Apr-21 10:30N 47°39' W 122°22'0 0.0
2017-Apr-21 10:00N 47°39' W 122°22'0 0.0
2017-Apr-21 09:30N 47°39' W 122°22'0 0.0
2017-Apr-21 09:00N 47°39' W 122°22'0 0.0
2017-Apr-21 08:30N 47°39' W 122°22'0 0.0
2017-Apr-21 08:00N 47°39' W 122°22'0 0.0
2017-Apr-21 07:30N 47°39' W 122°22'0 0.0
2017-Apr-21 07:00N 47°39' W 122°22'0 0.0
2017-Apr-21 06:30N 47°39' W 122°22'0 0.0
2017-Apr-21 06:00N 47°39' W 122°22'0 0.0
2017-Apr-21 05:30N 47°39' W 122°22'0 0.0
2017-Apr-21 05:00N 47°39' W 122°22'0 0.0
2017-Apr-21 04:30N 47°39' W 122°22'0 0.0
2017-Apr-21 04:00N 47°39' W 122°22'0 0.0
2017-Apr-21 03:30N 47°39' W 122°22'0 0.0
2017-Apr-21 03:00N 47°39' W 122°22'0 0.0
2017-Apr-21 02:30N 47°39' W 122°22'0 0.0
2017-Apr-21 02:00N 47°39' W 122°22'0 0.0
2017-Apr-21 01:30N 47°39' W 122°22'0 0.0
2017-Apr-21 01:00N 47°39' W 122°22'0 0.0
2017-Apr-21 00:30N 47°39' W 122°22'0 0.0
2017-Apr-21 00:00N 47°39' W 122°22'0 0.0
2017-Apr-20 23:30N 47°39' W 122°22'0 0.0
2017-Apr-20 23:00N 47°39' W 122°22'0 0.0
2017-Apr-20 22:30N 47°39' W 122°22'0 0.0
2017-Apr-20 22:00N 47°39' W 122°22'0 0.0
2017-Apr-20 21:30N 47°39' W 122°22'0 0.0
2017-Apr-20 21:00N 47°39' W 122°22'0 0.0
2017-Apr-20 20:30N 47°39' W 122°22'0 0.0
2017-Apr-20 20:00N 47°39' W 122°22'0 0.0
2017-Apr-20 19:30N 47°39' W 122°22'0 0.0
2017-Apr-20 19:00N 47°39' W 122°22'0 0.0
2017-Apr-20 18:30N 47°39' W 122°22'0 0.0
2017-Apr-20 18:00N 47°39' W 122°22'0 0.0
2017-Apr-20 17:30N 47°39' W 122°22'  
Track history (hours):
 
Tides and Currents Weather Stations Pressure Air Temp Water Temp Dewpoint Dewpoint Depression Visibility Wind Speed Wind Dir Waves Ship Positions

Coastal Nomad

Owner: Coastal Transportation, Inc., Seattle, WA. More information available from US FCC via Universal Licensing System and Coast Guard Vessel Documentation Center.

Last reported at 2017-Apr-26 18:00 UTC. Time now 2017-Apr-28 20:02 UTC.
Position N 55°48' W 152°36'.

Length 74 m; draft 5 m.

Type: Cargo ship. MMSI: 303683000.

Wind from 240 at 15 knots

Barometer 1001.0 mb
Air temperature 3.9 ° C
Visibility: greater than 5.4 NM

Date/timePositionNaut miles runAvg speedWind from/ knotsBaromVisibWave heightAir tempDewpointWater temp
2017-Apr-26 18:00N 55°48' W 152°36'28311.8 240 / 151001.0 5.4 3.9
2017-Apr-25 18:00N 56°12' W 144°12'26911.7 130 / 20999.0 5.4 4.4
2017-Apr-24 19:00N 55°06' W 136°30'39411.1 180 / 201010.0 5.4 6.7
2017-Apr-23 07:30N 51°02' W 127°55'612.1
2017-Apr-23 07:00N 50°59' W 127°47'611.7
2017-Apr-23 06:30N 50°55' W 127°40'611.1
2017-Apr-23 06:00N 50°52' W 127°33'611.5
2017-Apr-23 05:30N 50°49' W 127°25'611.9
2017-Apr-23 05:00N 50°47' W 127°16'611.9
2017-Apr-23 04:28N 50°45' W 127°07'511.7
2017-Apr-23 04:00N 50°43' W 126°59'811.7
2017-Apr-23 03:19N 50°39' W 126°48'5212.6
2017-Apr-22 23:12N 50°21' W 125°31'313.6
2017-Apr-22 23:00N 50°20' W 125°27'611.6
2017-Apr-22 22:30N 50°15' W 125°23'612.1
2017-Apr-22 22:00N 50°09' W 125°21'5 9.4
2017-Apr-22 21:30N 50°06' W 125°17'5 9.8
2017-Apr-22 21:00N 50°01' W 125°13'4 8.8
2017-Apr-22 20:30N 49°58' W 125°09'612.0
2017-Apr-22 20:01N 49°54' W 125°02'612.1
2017-Apr-22 19:30N 49°49' W 124°55'612.0
2017-Apr-22 19:00N 49°45' W 124°49'612.0
2017-Apr-22 18:31N 49°41' W 124°43'612.2
2017-Apr-22 18:00N 49°37' W 124°35'612.0
2017-Apr-22 17:30N 49°33' W 124°29'612.0
2017-Apr-22 17:00N 49°28' W 124°23'612.3
2017-Apr-22 16:30N 49°25' W 124°15'611.9
2017-Apr-22 16:00N 49°22' W 124°07'611.4
2017-Apr-22 15:30N 49°20' W 123°59'612.0
2017-Apr-22 15:00N 49°17' W 123°51'611.5
2017-Apr-22 14:28N 49°13' W 123°43'1111.4
2017-Apr-22 13:30N 49°08' W 123°28'611.8
2017-Apr-22 13:00N 49°04' W 123°21'611.3
2017-Apr-22 12:31N 49°01' W 123°14'611.2
2017-Apr-22 12:00N 48°57' W 123°08'611.4
2017-Apr-22 11:30N 48°53' W 123°02'612.4
2017-Apr-22 11:00N 48°49' W 122°54'612.3
2017-Apr-22 10:30N 48°46' W 122°47'612.7
2017-Apr-22 10:00N 48°40' W 122°42'713.3
2017-Apr-22 09:30N 48°34' W 122°45'713.6
2017-Apr-22 09:00N 48°27' W 122°44'612.7
2017-Apr-22 08:30N 48°21' W 122°45'612.0
2017-Apr-22 07:59N 48°15' W 122°48'5 9.4
2017-Apr-22 07:29N 48°10' W 122°45'4 8.8
2017-Apr-22 06:59N 48°07' W 122°40'510.0
2017-Apr-22 06:29N 48°03' W 122°38'510.0
2017-Apr-22 06:00N 47°58' W 122°35'510.4
2017-Apr-22 05:30N 47°55' W 122°29'611.6
2017-Apr-22 05:00N 47°49' W 122°27'612.0
2017-Apr-22 04:30N 47°43' W 122°26'4 7.3
2017-Apr-22 04:00N 47°40' W 122°24'1 2.1
2017-Apr-22 03:30N 47°40' W 122°22'0 0.2
2017-Apr-22 02:59N 47°39' W 122°22'0 0.0
2017-Apr-22 02:30N 47°39' W 122°22'0 0.0
2017-Apr-22 02:00N 47°39' W 122°22'0 0.0
2017-Apr-22 01:30N 47°39' W 122°22'0 0.0
2017-Apr-22 01:00N 47°39' W 122°22'0 0.0
2017-Apr-22 00:30N 47°39' W 122°22'0 0.0
2017-Apr-22 00:00N 47°39' W 122°22'0 0.0
2017-Apr-21 23:30N 47°39' W 122°22'0 0.0
2017-Apr-21 23:00N 47°39' W 122°22'0 0.0
2017-Apr-21 22:30N 47°39' W 122°22'0 0.0
2017-Apr-21 22:00N 47°39' W 122°22'0 0.0
2017-Apr-21 21:30N 47°39' W 122°22'0 0.0
2017-Apr-21 21:00N 47°39' W 122°22'0 0.0
2017-Apr-21 20:30N 47°39' W 122°22'0 0.0
2017-Apr-21 20:00N 47°39' W 122°22'0 0.0
2017-Apr-21 19:30N 47°39' W 122°22'0 0.0
2017-Apr-21 19:00N 47°39' W 122°22'0 0.0
2017-Apr-21 18:30N 47°39' W 122°22'0 0.0
2017-Apr-21 18:00N 47°39' W 122°22'0 0.0
2017-Apr-21 17:30N 47°39' W 122°22'0 0.0
2017-Apr-21 17:00N 47°39' W 122°22'0 0.0
2017-Apr-21 16:30N 47°39' W 122°22'0 0.0
2017-Apr-21 16:00N 47°39' W 122°22'0 0.0
2017-Apr-21 15:30N 47°39' W 122°22'0 0.0
2017-Apr-21 15:00N 47°39' W 122°22'0 0.0
2017-Apr-21 14:30N 47°39' W 122°22'0 0.0
2017-Apr-21 13:30N 47°39' W 122°22'0 0.0
2017-Apr-21 13:00N 47°39' W 122°22'0 0.0
2017-Apr-21 12:30N 47°39' W 122°22'0 0.0
2017-Apr-21 12:00N 47°39' W 122°22'0 0.0
2017-Apr-21 11:30N 47°39' W 122°22'0 0.0
2017-Apr-21 11:00N 47°39' W 122°22'0 0.0
2017-Apr-21 10:30N 47°39' W 122°22'0 0.0
2017-Apr-21 10:00N 47°39' W 122°22'0 0.0
2017-Apr-21 09:30N 47°39' W 122°22'0 0.0
2017-Apr-21 09:00N 47°39' W 122°22'0 0.0
2017-Apr-21 08:30N 47°39' W 122°22'0 0.0
2017-Apr-21 08:00N 47°39' W 122°22'0 0.0
2017-Apr-21 07:30N 47°39' W 122°22'0 0.0
2017-Apr-21 07:00N 47°39' W 122°22'0 0.0
2017-Apr-21 06:30N 47°39' W 122°22'0 0.0
2017-Apr-21 06:00N 47°39' W 122°22'0 0.0
2017-Apr-21 05:30N 47°39' W 122°22'0 0.0
2017-Apr-21 05:00N 47°39' W 122°22'0 0.0
2017-Apr-21 04:30N 47°39' W 122°22'0 0.0
2017-Apr-21 04:00N 47°39' W 122°22'0 0.0
2017-Apr-21 03:30N 47°39' W 122°22'0 0.0
2017-Apr-21 03:00N 47°39' W 122°22'0 0.0
2017-Apr-21 02:30N 47°39' W 122°22'0 0.0
2017-Apr-21 02:00N 47°39' W 122°22'0 0.0
2017-Apr-21 01:30N 47°39' W 122°22'0 0.0
2017-Apr-21 01:00N 47°39' W 122°22'0 0.0
2017-Apr-21 00:30N 47°39' W 122°22'0 0.0
2017-Apr-21 00:00N 47°39' W 122°22'0 0.0
2017-Apr-20 23:30N 47°39' W 122°22'0 0.0
2017-Apr-20 23:00N 47°39' W 122°22'0 0.0
2017-Apr-20 22:30N 47°39' W 122°22'0 0.0
2017-Apr-20 22:00N 47°39' W 122°22'0 0.0
2017-Apr-20 21:30N 47°39' W 122°22'0 0.0
2017-Apr-20 21:00N 47°39' W 122°22'0 0.0
2017-Apr-20 20:30N 47°39' W 122°22'0 0.0
2017-Apr-20 20:00N 47°39' W 122°22'0 0.0
2017-Apr-20 19:30N 47°39' W 122°22'0 0.0
2017-Apr-20 19:00N 47°39' W 122°22'0 0.0
2017-Apr-20 18:30N 47°39' W 122°22'0 0.0
2017-Apr-20 18:00N 47°39' W 122°22'0 0.0
2017-Apr-20 17:30N 47°39' W 122°22'  

Dump ship's entire track history